createdAt,value
2023-04-20T00:02:18.106Z,102555.03
2023-04-20T00:04:44.743Z,102558.59
2023-04-20T00:07:11.426Z,102549.94
2023-04-20T00:09:38.057Z,102543.66
2023-04-20T00:12:05.090Z,102540.53
2023-04-20T00:14:31.592Z,102540.84
2023-04-20T00:16:58.174Z,102542.81
2023-04-20T00:19:26.108Z,102538.47
2023-04-20T00:21:53.020Z,102536.75
2023-04-20T00:24:19.597Z,102524.56
2023-04-20T00:26:46.113Z,102523.97
2023-04-20T00:29:12.647Z,102520.06
2023-04-20T00:31:39.151Z,102520.69
2023-04-20T00:34:05.733Z,102517.00
2023-04-20T00:36:32.366Z,102508.94
2023-04-20T00:38:59.184Z,102500.03
2023-04-20T00:41:25.697Z,102496.00
2023-04-20T00:43:53.543Z,102493.91
2023-04-20T00:46:21.224Z,102492.69
2023-04-20T00:48:51.265Z,102489.75
2023-04-20T00:51:19.477Z,102485.94
2023-04-20T00:53:46.410Z,102477.63
2023-04-20T00:56:16.586Z,102476.38
2023-04-20T00:58:43.679Z,102463.50
2023-04-20T01:01:11.254Z,102469.25
2023-04-20T01:03:39.429Z,102459.94
2023-04-20T01:06:07.345Z,102460.28
2023-04-20T01:08:33.834Z,102457.97
2023-04-20T01:11:00.393Z,102449.28
2023-04-20T01:13:27.050Z,102449.50
2023-04-20T01:15:53.805Z,102440.72
2023-04-20T01:18:20.518Z,102436.34
2023-04-20T01:20:47.902Z,102429.13
2023-04-20T01:23:14.480Z,102426.44
2023-04-20T01:25:41.740Z,102419.25
2023-04-20T01:28:09.409Z,102409.25
2023-04-20T01:30:37.801Z,102409.13
2023-04-20T01:33:04.403Z,102412.53
2023-04-20T01:35:31.114Z,102408.03
2023-04-20T01:37:57.650Z,102409.63
2023-04-20T01:40:24.233Z,102400.59
2023-04-20T01:42:50.778Z,102395.13
2023-04-20T01:45:17.304Z,102402.19
2023-04-20T01:47:43.796Z,102390.84
2023-04-20T01:50:10.654Z,102392.66
2023-04-20T01:52:37.245Z,102379.97
2023-04-20T01:55:03.974Z,102383.03
2023-04-20T01:57:30.532Z,102387.91
2023-04-20T01:59:57.016Z,102376.72
2023-04-20T02:02:23.594Z,102384.53
2023-04-20T02:04:50.433Z,102377.13
2023-04-20T02:07:17.061Z,102375.78
2023-04-20T02:09:43.587Z,102369.94
2023-04-20T02:12:10.319Z,102366.88
2023-04-20T02:14:36.856Z,102364.81
2023-04-20T02:17:03.538Z,102357.34
2023-04-20T02:19:30.511Z,102359.78
2023-04-20T02:21:57.025Z,102356.72
2023-04-20T02:24:23.505Z,102351.09
2023-04-20T02:26:50.078Z,102357.34
2023-04-20T02:29:17.099Z,102343.78
2023-04-20T02:31:44.399Z,102342.81
2023-04-20T02:34:11.033Z,102331.91
2023-04-20T02:36:37.818Z,102330.09
2023-04-20T02:39:04.524Z,102322.91
2023-04-20T02:41:31.067Z,102332.66
2023-04-20T02:43:57.606Z,102328.13
2023-04-20T02:46:24.169Z,102318.25
2023-04-20T02:48:50.875Z,102315.56
2023-04-20T02:51:17.379Z,102315.41
2023-04-20T02:53:43.845Z,102304.66
2023-04-20T02:56:10.860Z,102301.97
2023-04-20T02:58:37.415Z,102297.34
2023-04-20T03:01:07.353Z,102299.03
2023-04-20T03:03:34.107Z,102290.97
2023-04-20T03:06:00.737Z,102296.34
2023-04-20T03:08:27.248Z,102294.53
2023-04-20T03:10:53.793Z,102287.19
2023-04-20T03:13:20.625Z,102284.13
2023-04-20T03:15:47.205Z,102283.88
2023-04-20T03:18:13.750Z,102278.25
2023-04-20T03:20:40.417Z,102266.53
2023-04-20T03:23:07.005Z,102268.97
2023-04-20T03:25:33.518Z,102267.97
2023-04-20T03:28:00.167Z,102257.06
2023-04-20T03:30:26.894Z,102260.63
2023-04-20T03:32:53.473Z,102255.25
2023-04-20T03:35:20.953Z,102260.63
2023-04-20T03:37:47.582Z,102257.06
2023-04-20T03:40:14.123Z,102251.69
2023-04-20T03:42:41.461Z,102246.31
2023-04-20T03:45:08.375Z,102249.16
2023-04-20T03:47:34.914Z,102245.63
2023-04-20T03:50:01.512Z,102244.03
2023-04-20T03:52:28.013Z,102243.19
2023-04-20T03:54:54.516Z,102251.38
2023-04-20T03:57:21.087Z,102243.41
2023-04-20T03:59:47.584Z,102246.25
2023-04-20T04:02:14.088Z,102237.44
2023-04-20T04:04:41.311Z,102240.97
2023-04-20T04:07:08.014Z,102233.75
2023-04-20T04:09:34.525Z,102219.63
2023-04-20T04:12:01.400Z,102210.69
2023-04-20T04:14:28.900Z,102219.63
2023-04-20T04:16:56.124Z,102219.75
2023-04-20T04:19:22.664Z,102211.81
2023-04-20T04:21:49.191Z,102205.56
2023-04-20T04:24:17.507Z,102193.13
2023-04-20T04:26:44.086Z,102188.84
2023-04-20T04:29:11.377Z,102191.69
2023-04-20T04:31:37.970Z,102178.50
2023-04-20T04:34:04.479Z,102184.97
2023-04-20T04:36:32.163Z,102190.72
2023-04-20T04:38:59.194Z,102180.38
2023-04-20T04:41:25.820Z,102172.53
2023-04-20T04:43:52.355Z,102175.50
2023-04-20T04:46:18.890Z,102176.84
2023-04-20T04:48:46.650Z,102169.31
2023-04-20T04:51:13.289Z,102169.69
2023-04-20T04:53:39.822Z,102179.00
2023-04-20T04:56:06.939Z,102174.91
2023-04-20T04:58:33.577Z,102171.78
2023-04-20T05:01:00.189Z,102176.53
2023-04-20T05:03:27.014Z,102164.19
2023-04-20T05:05:53.800Z,102162.88
2023-04-20T05:08:21.399Z,102164.09
2023-04-20T05:10:47.964Z,102167.16
2023-04-20T05:13:14.497Z,102162.88
2023-04-20T05:15:42.597Z,102157.66
2023-04-20T05:18:10.360Z,102157.03
2023-04-20T05:20:36.980Z,102169.72
2023-04-20T05:23:03.919Z,102168.16
2023-04-20T05:25:31.358Z,102165.72
2023-04-20T05:27:57.896Z,102167.41
2023-04-20T05:30:24.498Z,102168.03
2023-04-20T05:32:52.267Z,102183.38
2023-04-20T05:35:19.748Z,102178.25
2023-04-20T05:37:47.683Z,102174.94
2023-04-20T05:40:15.734Z,102184.22
2023-04-20T05:42:42.332Z,102181.16
2023-04-20T05:45:09.642Z,102168.34
2023-04-20T05:47:36.201Z,102164.56
2023-04-20T05:50:02.794Z,102183.00
2023-04-20T05:52:29.315Z,102172.84
2023-04-20T05:54:55.898Z,102182.22
2023-04-20T05:57:24.421Z,102180.88
2023-04-20T05:59:51.329Z,102182.44
2023-04-20T06:02:17.856Z,102197.47
2023-04-20T06:04:44.753Z,102188.31
2023-04-20T06:07:11.497Z,102172.91
2023-04-20T06:09:37.993Z,102164.69
2023-04-20T06:12:04.858Z,102167.38
2023-04-20T06:14:31.403Z,102170.06
2023-04-20T06:16:57.933Z,102172.75
2023-04-20T06:19:24.518Z,102167.28
2023-04-20T06:21:51.050Z,102176.19
2023-04-20T06:24:17.602Z,102155.69
2023-04-20T06:26:44.108Z,102155.53
2023-04-20T06:29:10.759Z,102149.31
2023-04-20T06:31:37.373Z,102149.31
2023-04-20T06:34:03.954Z,102146.63
2023-04-20T06:36:31.209Z,102157.38
2023-04-20T06:38:57.772Z,102149.31
2023-04-20T06:41:24.300Z,102148.56
2023-04-20T06:43:51.614Z,102137.97
2023-04-20T06:46:18.229Z,102138.72
2023-04-20T06:48:44.747Z,102144.19
2023-04-20T06:51:13.057Z,102145.03
2023-04-20T06:53:39.595Z,102147.03
2023-04-20T06:56:06.647Z,102146.16
2023-04-20T06:58:33.187Z,102138.09
2023-04-20T07:00:59.694Z,102139.81
2023-04-20T07:03:26.897Z,102145.88
2023-04-20T07:05:53.492Z,102155.69
2023-04-20T07:08:20.282Z,102159.81
2023-04-20T07:10:46.836Z,102148.94
2023-04-20T07:13:13.369Z,102154.06
2023-04-20T07:15:40.004Z,102152.91
2023-04-20T07:18:06.648Z,102152.66
2023-04-20T07:20:33.519Z,102148.03
2023-04-20T07:23:00.048Z,102154.00
2023-04-20T07:25:27.364Z,102153.72
2023-04-20T07:27:54.016Z,102144.69
2023-04-20T07:30:20.710Z,102141.16
2023-04-20T07:32:47.276Z,102143.97
2023-04-20T07:35:13.866Z,102135.28
2023-04-20T07:37:40.857Z,102149.97
2023-04-20T07:40:08.525Z,102160.03
2023-04-20T07:42:37.105Z,102159.44
2023-04-20T07:45:05.497Z,102155.88
2023-04-20T07:47:33.578Z,102163.22
2023-04-20T07:50:00.133Z,102158.81
2023-04-20T07:52:26.702Z,102154.44
2023-04-20T07:54:58.003Z,102156.38
2023-04-20T07:57:25.087Z,102149.47
2023-04-20T07:59:52.033Z,102155.78
2023-04-20T08:02:19.086Z,102156.91
2023-04-20T08:04:46.436Z,102167.06
2023-04-20T08:07:14.096Z,102166.47
2023-04-20T08:09:40.673Z,102156.22
2023-04-20T08:12:07.589Z,102146.84
2023-04-20T08:14:34.136Z,102140.00
2023-04-20T08:17:00.706Z,102137.81
2023-04-20T08:19:27.257Z,102146.22
2023-04-20T08:21:54.299Z,102144.06
2023-04-20T08:24:21.093Z,102144.56
2023-04-20T08:26:47.791Z,102138.72
2023-04-20T08:29:14.379Z,102124.94
2023-04-20T08:31:41.156Z,102126.06
2023-04-20T08:34:07.736Z,102128.97
2023-04-20T08:36:34.250Z,102131.19
2023-04-20T08:39:13.116Z,102137.78
2023-04-20T08:41:39.904Z,102127.28
2023-04-20T08:44:07.552Z,102120.31
2023-04-20T08:46:34.931Z,102117.88
2023-04-20T08:49:03.456Z,102126.91
2023-04-20T08:51:32.368Z,102122.66
2023-04-20T08:54:06.032Z,102129.97
2023-04-20T08:56:41.217Z,102134.63
2023-04-20T08:59:11.236Z,102123.00
2023-04-20T09:01:40.788Z,102124.84
2023-04-20T09:04:24.911Z,102125.84
2023-04-20T09:06:56.109Z,102125.84
2023-04-20T09:09:24.271Z,102117.78
2023-04-20T09:12:08.981Z,102119.63
2023-04-20T09:14:47.023Z,102124.97
2023-04-20T09:17:15.023Z,102117.78
2023-04-20T09:19:44.125Z,102116.78
2023-04-20T09:22:10.663Z,102108.75
2023-04-20T09:24:38.892Z,102104.97
2023-04-20T09:27:19.004Z,102095.09
2023-04-20T09:29:57.691Z,102092.88
2023-04-20T09:32:25.443Z,102097.03
2023-04-20T09:34:52.033Z,102088.88
2023-04-20T09:37:18.633Z,102098.22
2023-04-20T09:39:45.796Z,102098.84
2023-04-20T09:42:14.158Z,102105.66
2023-04-20T09:44:41.127Z,102100.75
2023-04-20T09:47:08.823Z,102093.31
2023-04-20T09:49:35.624Z,102091.97
2023-04-20T09:52:03.572Z,102089.16
2023-04-20T09:54:30.592Z,102080.72
2023-04-20T09:57:01.595Z,102065.19
2023-04-20T09:59:28.818Z,102067.50
2023-04-20T10:01:55.652Z,102082.56
2023-04-20T10:06:57.975Z,102073.84
2023-04-20T10:09:26.203Z,102064.66
2023-04-20T10:11:55.094Z,102071.75
2023-04-20T10:14:26.133Z,102071.63
2023-04-20T10:17:04.945Z,102061.59
2023-04-20T10:19:44.784Z,102058.78
2023-04-20T10:22:13.603Z,102055.13
2023-04-20T10:24:40.315Z,102052.44
2023-04-20T10:27:17.729Z,102047.31
2023-04-20T10:29:44.247Z,102041.94
2023-04-20T10:32:29.759Z,102048.44
2023-04-20T10:35:04.779Z,102043.06
2023-04-20T10:37:32.245Z,102042.22
2023-04-20T10:39:59.444Z,102037.69
2023-04-20T10:42:29.735Z,102035.00
2023-04-20T10:44:56.668Z,102041.94
2023-04-20T10:47:31.554Z,102045.34
2023-04-20T10:50:09.928Z,102039.72
2023-04-20T10:52:41.166Z,102034.06
2023-04-20T10:55:22.826Z,102031.53
2023-04-20T10:57:50.168Z,102035.81
2023-04-20T11:00:21.993Z,102042.88
2023-04-20T11:02:50.740Z,102028.44
2023-04-20T11:05:18.902Z,102022.97
2023-04-20T11:08:03.593Z,102016.72
2023-04-20T11:10:41.439Z,102013.91
2023-04-20T11:13:19.444Z,102010.38
2023-04-20T11:15:46.344Z,102011.34
2023-04-20T11:18:13.077Z,102000.72
2023-04-20T11:20:55.711Z,102005.66
2023-04-20T11:23:24.178Z,102006.63
2023-04-20T11:25:57.257Z,102003.38
2023-04-20T11:28:23.905Z,102005.19
2023-04-20T11:30:51.077Z,102002.63
2023-04-20T11:33:30.364Z,101992.88
2023-04-20T11:35:58.384Z,101980.44
2023-04-20T11:38:32.547Z,101981.00
2023-04-20T11:41:04.468Z,101985.59
2023-04-20T11:43:32.216Z,101983.97
2023-04-20T11:46:00.010Z,101966.03
2023-04-20T11:48:31.196Z,101971.88
2023-04-20T11:50:58.287Z,101968.91
2023-04-20T11:53:24.806Z,101959.88
2023-04-20T11:55:51.334Z,101963.28
2023-04-20T11:58:17.795Z,101962.28
2023-04-20T12:00:44.296Z,101966.53
2023-04-20T12:03:11.011Z,101980.84
2023-04-20T12:05:37.967Z,101973.59
2023-04-20T12:08:04.808Z,101975.44
2023-04-20T12:10:31.307Z,101976.44
2023-04-20T12:12:59.945Z,101969.38
2023-04-20T12:15:26.825Z,101976.59
2023-04-20T12:17:53.714Z,101972.31
2023-04-20T12:20:20.236Z,101970.63
2023-04-20T12:22:46.736Z,101972.59
2023-04-20T12:25:14.008Z,101965.50
2023-04-20T12:27:40.552Z,101960.28
2023-04-20T12:30:09.236Z,101958.56
2023-04-20T12:32:35.778Z,101952.34
2023-04-20T12:35:02.756Z,101950.78
2023-04-20T12:37:29.321Z,101957.97
2023-04-20T12:39:55.845Z,101955.44
2023-04-20T12:42:22.377Z,101952.03
2023-04-20T12:44:48.933Z,101956.69
2023-04-20T12:47:15.664Z,101947.03
2023-04-20T12:49:42.315Z,101961.63
2023-04-20T12:52:09.077Z,101951.13
2023-04-20T12:54:35.625Z,101958.47
2023-04-20T12:57:03.396Z,101960.44
2023-04-20T12:59:29.966Z,101953.47
2023-04-20T13:01:56.553Z,101960.84
2023-04-20T13:04:23.710Z,101951.09
2023-04-20T13:06:51.266Z,101953.78
2023-04-20T13:09:17.793Z,101944.72
2023-04-20T13:11:44.631Z,101951.63
2023-04-20T13:14:11.252Z,101940.78
2023-04-20T13:16:37.973Z,101941.63
2023-04-20T13:19:04.582Z,101937.09
2023-04-20T13:21:33.101Z,101944.16
2023-04-20T13:23:59.630Z,101930.72
2023-04-20T13:26:26.248Z,101927.19
2023-04-20T13:28:54.105Z,101932.56
2023-04-20T13:31:20.644Z,101933.41
2023-04-20T13:33:47.192Z,101935.25
2023-04-20T13:36:13.715Z,101932.72
2023-04-20T13:38:40.228Z,101930.28
2023-04-20T13:41:06.810Z,101935.66
2023-04-20T13:43:33.373Z,101926.16
2023-04-20T13:45:59.891Z,101929.00
2023-04-20T13:48:26.420Z,101924.88
2023-04-20T13:50:54.179Z,101918.78
2023-04-20T13:53:21.919Z,101922.59
2023-04-20T13:55:48.633Z,101916.50
2023-04-20T13:58:15.296Z,101907.44
2023-04-20T14:00:41.846Z,101910.13
2023-04-20T14:03:11.458Z,101901.22
2023-04-20T14:05:41.832Z,101902.91
2023-04-20T14:08:08.349Z,101901.09
2023-04-20T14:10:34.879Z,101893.75
2023-04-20T14:13:01.945Z,101888.22
2023-04-20T14:15:28.692Z,101887.28
2023-04-20T14:17:55.355Z,101888.13
2023-04-20T14:20:21.927Z,101881.75
2023-04-20T14:22:48.582Z,101897.03
2023-04-20T14:25:15.153Z,101880.91
2023-04-20T14:27:41.737Z,101885.53
2023-04-20T14:30:09.013Z,101879.34
2023-04-20T14:32:36.159Z,101883.84
2023-04-20T14:35:05.651Z,101888.22
2023-04-20T14:37:33.084Z,101877.50
2023-04-20T14:39:59.621Z,101879.34
2023-04-20T14:42:26.134Z,101882.00
2023-04-20T14:44:52.620Z,101877.50
2023-04-20T14:47:19.242Z,101873.84
2023-04-20T14:49:48.191Z,101881.91
2023-04-20T14:52:22.855Z,101873.00
2023-04-20T14:54:49.340Z,101876.53
2023-04-20T14:57:15.934Z,101875.69
2023-04-20T14:59:42.794Z,101874.81
2023-04-20T15:02:09.405Z,101866.91
2023-04-20T15:04:36.244Z,101886.53
2023-04-20T15:07:03.989Z,101872.13
2023-04-20T15:09:30.590Z,101864.94
2023-04-20T15:11:58.446Z,101865.63
2023-04-20T15:14:25.185Z,101861.97
2023-04-20T15:16:52.772Z,101863.53
2023-04-20T15:19:20.306Z,101857.31
2023-04-20T15:21:46.925Z,101858.16
2023-04-20T15:24:13.411Z,101849.13
2023-04-20T15:26:39.974Z,101852.66
2023-04-20T15:29:06.602Z,101841.06
2023-04-20T15:31:33.185Z,101843.63
2023-04-20T15:34:00.682Z,101841.78
2023-04-20T15:36:27.511Z,101840.94
2023-04-20T15:38:56.043Z,101845.31
2023-04-20T15:41:23.990Z,101844.31
2023-04-20T15:43:51.298Z,101847.75
2023-04-20T15:46:17.879Z,101848.44
2023-04-20T15:48:44.947Z,101848.44
2023-04-20T15:51:11.849Z,101843.81
2023-04-20T15:53:38.710Z,101841.81
2023-04-20T15:56:05.473Z,101850.59
2023-04-20T15:58:32.046Z,101837.88
2023-04-20T16:00:58.648Z,101841.97
2023-04-20T16:03:25.451Z,101839.03
2023-04-20T16:05:52.086Z,101840.59
2023-04-20T16:08:18.968Z,101837.78
2023-04-20T16:10:45.925Z,101844.72
2023-04-20T16:13:12.458Z,101832.81
2023-04-20T16:15:39.159Z,101839.91
2023-04-20T16:18:05.844Z,101833.41
2023-04-20T16:20:32.442Z,101841.19
2023-04-20T16:22:58.993Z,101849.13
2023-04-20T16:25:25.859Z,101839.94
2023-04-20T16:27:52.552Z,101845.16
2023-04-20T16:30:19.204Z,101846.75
2023-04-20T16:32:45.857Z,101847.59
2023-04-20T16:35:12.522Z,101843.91
2023-04-20T16:37:39.093Z,101841.94
2023-04-20T16:40:06.338Z,101845.63
2023-04-20T16:42:34.210Z,101841.94
2023-04-20T16:45:01.099Z,101844.63
2023-04-20T16:47:27.669Z,101843.63
2023-04-20T16:49:54.198Z,101844.63
2023-04-20T16:52:20.741Z,101840.78
2023-04-20T16:54:47.294Z,101841.66
2023-04-20T16:57:13.873Z,101838.97
2023-04-20T16:59:40.377Z,101840.78
2023-04-20T17:02:07.718Z,101841.66
2023-04-20T17:04:34.729Z,101848.00
2023-04-20T17:07:01.257Z,101835.56
2023-04-20T17:09:27.843Z,101844.63
2023-04-20T17:11:54.348Z,101842.06
2023-04-20T17:14:21.091Z,101839.38
2023-04-20T17:16:47.802Z,101843.91
2023-04-20T17:19:14.440Z,101839.38
2023-04-20T17:21:41.030Z,101841.22
2023-04-20T17:24:07.569Z,101841.38
2023-04-20T17:26:34.182Z,101839.66
2023-04-20T17:29:01.112Z,101836.97
2023-04-20T17:31:27.681Z,101836.84
2023-04-20T17:33:55.768Z,101833.16
2023-04-20T17:36:22.278Z,101836.41
2023-04-20T17:38:48.842Z,101836.41
2023-04-20T17:41:15.588Z,101836.28
2023-04-20T17:43:42.239Z,101839.81
2023-04-20T17:46:09.147Z,101844.22
2023-04-20T17:48:35.726Z,101844.22
2023-04-20T17:51:02.267Z,101838.81
2023-04-20T17:53:28.810Z,101845.06
2023-04-20T17:55:55.387Z,101852.44
2023-04-20T17:58:21.972Z,101859.50
2023-04-20T18:00:48.566Z,101856.91
2023-04-20T18:03:15.748Z,101856.06
2023-04-20T18:05:42.459Z,101863.19
2023-04-20T18:08:10.272Z,101866.84
2023-04-20T18:10:37.626Z,101871.38
2023-04-20T18:13:04.699Z,101866.84
2023-04-20T18:15:31.400Z,101865.13
2023-04-20T18:17:57.991Z,101873.19
2023-04-20T18:20:24.644Z,101867.69
2023-04-20T18:22:51.178Z,101870.50
2023-04-20T18:25:19.358Z,101865.00
2023-04-20T18:27:46.110Z,101864.16
2023-04-20T18:30:13.834Z,101868.69
2023-04-20T18:32:40.808Z,101865.88
2023-04-20T18:35:08.225Z,101875.75
2023-04-20T18:37:34.845Z,101870.38
2023-04-20T18:40:01.428Z,101875.88
2023-04-20T18:42:27.991Z,101867.97
2023-04-20T18:44:55.891Z,101871.63
2023-04-20T18:47:24.513Z,101869.94
2023-04-20T18:49:51.235Z,101875.31
2023-04-20T18:52:19.232Z,101869.09
2023-04-20T18:54:46.782Z,101868.25
2023-04-20T18:57:13.375Z,101866.41
2023-04-20T18:59:40.067Z,101868.41
2023-04-20T19:02:07.005Z,101872.78
2023-04-20T19:04:36.171Z,101865.72
2023-04-20T19:07:02.838Z,101869.25
2023-04-20T19:09:29.425Z,101874.63
2023-04-20T19:11:57.084Z,101874.63
2023-04-20T19:14:23.697Z,101873.78
2023-04-20T19:16:50.391Z,101873.78
2023-04-20T19:19:16.980Z,101878.16
2023-04-20T19:21:43.635Z,101872.88
2023-04-20T19:24:10.202Z,101886.34
2023-04-20T19:26:36.859Z,101884.63
2023-04-20T19:29:03.527Z,101890.75
2023-04-20T19:31:36.629Z,101885.38
2023-04-20T19:34:04.555Z,101890.75
2023-04-20T19:36:32.138Z,101885.38
2023-04-20T19:38:58.759Z,101886.22
2023-04-20T19:41:26.164Z,101887.22
2023-04-20T19:43:53.039Z,101881.84
2023-04-20T19:46:20.314Z,101880.84
2023-04-20T19:48:46.976Z,101878.28
2023-04-20T19:51:13.508Z,101865.97
2023-04-20T19:53:40.102Z,101864.28
2023-04-20T19:56:06.823Z,101866.25
2023-04-20T19:58:33.369Z,101871.03
2023-04-20T20:00:59.953Z,101877.53
2023-04-20T20:03:27.365Z,101877.81
2023-04-20T20:05:54.252Z,101880.63
2023-04-20T20:08:20.948Z,101877.22
2023-04-20T20:10:47.442Z,101878.34
2023-04-20T20:13:14.219Z,101877.66
2023-04-20T20:15:40.839Z,101886.81
2023-04-20T20:18:07.738Z,101880.84
2023-04-20T20:20:34.342Z,101873.94
2023-04-20T20:23:00.904Z,101879.44
2023-04-20T20:25:27.436Z,101879.69
2023-04-20T20:27:54.290Z,101883.38
2023-04-20T20:30:21.097Z,101868.34
2023-04-20T20:32:47.774Z,101868.50
2023-04-20T20:35:14.442Z,101872.31
2023-04-20T20:37:41.615Z,101869.75
2023-04-20T20:40:15.057Z,101868.19
2023-04-20T20:42:45.202Z,101860.25
2023-04-20T20:45:12.897Z,101864.06
2023-04-20T20:47:44.216Z,101856.16
2023-04-20T20:50:15.018Z,101861.66
2023-04-20T20:52:41.894Z,101862.78
2023-04-20T20:55:09.477Z,101868.41
2023-04-20T20:57:36.018Z,101873.06
2023-04-20T21:00:07.997Z,101861.56
2023-04-20T21:02:34.869Z,101863.53
2023-04-20T21:05:01.668Z,101856.75
2023-04-20T21:07:28.248Z,101856.84
2023-04-20T21:09:54.924Z,101857.00
2023-04-20T21:12:21.508Z,101846.53
2023-04-20T21:14:51.445Z,101861.94
2023-04-20T21:17:18.666Z,101860.34
2023-04-20T21:19:45.310Z,101849.75
2023-04-20T21:22:12.013Z,101849.00
2023-04-20T21:24:38.560Z,101847.47
2023-04-20T21:27:05.067Z,101858.19
2023-04-20T21:29:31.908Z,101849.41
2023-04-20T21:31:58.451Z,101842.47
2023-04-20T21:34:25.019Z,101854.19
2023-04-20T21:36:51.953Z,101850.81
2023-04-20T21:39:18.785Z,101856.16
2023-04-20T21:41:45.522Z,101855.31
2023-04-20T21:44:12.062Z,101856.28
2023-04-20T21:46:39.300Z,101846.69
2023-04-20T21:49:05.876Z,101848.50
2023-04-20T21:51:33.008Z,101836.91
2023-04-20T21:53:59.612Z,101839.72
2023-04-20T21:56:26.235Z,101844.25
2023-04-20T21:58:52.784Z,101852.44
2023-04-20T22:01:19.334Z,101847.19
2023-04-20T22:03:47.460Z,101852.69
2023-04-20T22:06:14.441Z,101856.34
2023-04-20T22:08:41.878Z,101851.13
2023-04-20T22:11:08.948Z,101858.31
2023-04-20T22:13:36.637Z,101856.72
2023-04-20T22:16:03.986Z,101873.81
2023-04-20T22:18:30.785Z,101870.28
2023-04-20T22:20:57.461Z,101877.59
2023-04-20T22:23:24.144Z,101876.75
2023-04-20T22:25:50.929Z,101860.81
2023-04-20T22:28:17.519Z,101870.69
2023-04-20T22:30:44.064Z,101858.38
2023-04-20T22:33:10.609Z,101868.13
2023-04-20T22:35:37.128Z,101862.38
2023-04-20T22:38:03.665Z,101858.19
2023-04-20T22:40:30.439Z,101854.72
2023-04-20T22:42:56.916Z,101849.41
2023-04-20T22:45:23.455Z,101838.72
2023-04-20T22:47:50.098Z,101841.47
2023-04-20T22:50:16.822Z,101849.88
2023-04-20T22:52:43.334Z,101836.06
2023-04-20T22:55:10.651Z,101833.81
2023-04-20T22:57:38.866Z,101827.34
2023-04-20T23:00:10.366Z,101830.72
2023-04-20T23:02:37.564Z,101828.88
2023-04-20T23:05:05.684Z,101827.03
2023-04-20T23:07:33.006Z,101819.13
2023-04-20T23:09:59.935Z,101823.91
2023-04-20T23:12:26.751Z,101818.09
2023-04-20T23:14:54.824Z,101807.16
2023-04-20T23:17:21.375Z,101804.28
2023-04-20T23:19:47.962Z,101797.75
2023-04-20T23:22:14.541Z,101789.38
2023-04-20T23:24:41.062Z,101786.38
2023-04-20T23:27:07.642Z,101782.53
2023-04-20T23:29:34.196Z,101768.78
2023-04-20T23:32:01.338Z,101772.72
2023-04-20T23:34:27.939Z,101768.72
2023-04-20T23:36:54.497Z,101773.66
2023-04-20T23:39:21.222Z,101768.53
2023-04-20T23:41:47.949Z,101760.75
2023-04-20T23:44:14.599Z,101744.06
2023-04-20T23:46:41.170Z,101724.56
2023-04-20T23:49:07.856Z,101729.34
2023-04-20T23:51:34.379Z,101725.09
2023-04-20T23:54:00.936Z,101733.28
2023-04-20T23:56:27.462Z,101726.06
2023-04-20T23:58:53.972Z,101736.91
